Time;durP1;ratioP1;P1;durP2;ratioP2;P2;SDS_P1;SDS_P2;PMS_P1;PMS_P2;Temp;Humidity;BMP_temperature;BMP_pressure;BME280_temperature;BME280_humidity;BME280_pressure;Samples;Min_cycle;Max_cycle;Signal;HPM_P1;HPM_P2
2023/05/12 00:00:24;;;;;;;3.80;3.50;;;;;;;11.95;79.64;96410.06;4918158;29;20052;-81
2023/05/12 00:02:51;;;;;;;3.47;3.00;;;;;;;11.98;80.91;96408.06;4918003;29;20055;-82
2023/05/12 00:05:19;;;;;;;3.55;3.25;;;;;;;12.02;81.92;96409.31;4929455;29;20048;-82
2023/05/12 00:07:46;;;;;;;4.20;3.80;;;;;;;12.10;83.11;96409.13;4932106;29;20060;-82
2023/05/12 00:10:16;;;;;;;5.00;4.50;;;;;;;12.13;82.42;96406.94;4931660;29;20497;-82
2023/05/12 00:12:44;;;;;;;5.43;4.80;;;;;;;12.19;82.75;96401.94;4921411;29;20133;-82
2023/05/12 00:15:11;;;;;;;7.43;4.80;;;;;;;12.19;81.59;96407.16;4934099;29;20056;-82
2023/05/12 00:17:39;;;;;;;7.78;5.43;;;;;;;12.15;81.32;96401.50;4933251;29;20139;-82
2023/05/12 00:20:08;;;;;;;6.18;5.18;;;;;;;12.12;80.49;96399.28;4919814;29;20060;-81
2023/05/12 00:22:36;;;;;;;5.43;4.93;;;;;;;12.11;81.50;96398.50;4917868;29;20477;-81
2023/05/12 00:25:04;;;;;;;6.05;5.45;;;;;;;12.12;80.78;96394.06;4917943;29;20086;-82
2023/05/12 00:27:33;;;;;;;6.20;5.60;;;;;;;12.06;79.60;96390.41;4918264;29;20472;-82
2023/05/12 00:30:00;;;;;;;6.47;5.78;;;;;;;12.01;79.88;96381.56;4917429;29;20530;-81
2023/05/12 00:32:28;;;;;;;9.27;6.40;;;;;;;11.94;79.70;96377.13;4917550;29;20060;-81
2023/05/12 00:34:56;;;;;;;5.90;4.97;;;;;;;11.93;81.06;96385.94;4917787;29;20048;-82
2023/05/12 00:37:23;;;;;;;5.10;4.30;;;;;;;11.97;81.68;96388.97;4917936;29;20423;-81
2023/05/12 00:39:51;;;;;;;3.83;3.42;;;;;;;12.01;81.82;96382.38;4917538;29;20062;-82
2023/05/12 00:42:19;;;;;;;4.25;3.85;;;;;;;12.05;81.53;96377.56;4917126;29;20054;-82
2023/05/12 00:44:48;;;;;;;3.40;3.10;;;;;;;12.04;81.66;96381.97;4917096;29;20497;-82
2023/05/12 00:47:16;;;;;;;7.60;5.70;;;;;;;11.99;80.54;96378.34;4917349;29;20503;-81
2023/05/12 00:49:44;;;;;;;5.00;4.50;;;;;;;11.98;81.15;96384.56;4917183;29;20063;-82
2023/05/12 00:52:12;;;;;;;5.65;4.68;;;;;;;11.99;80.72;96384.38;4917350;29;20059;-81
2023/05/12 00:54:42;;;;;;;5.03;4.53;;;;;;;12.03;82.82;96384.78;4916969;29;20054;-82
2023/05/12 00:57:10;;;;;;;6.10;4.20;;;;;;;12.05;82.63;96383.59;4917295;29;20059;-81
2023/05/12 00:59:37;;;;;;;4.38;3.97;;;;;;;12.09;83.08;96383.97;4917636;29;20052;-82
2023/05/12 01:02:07;;;;;;;6.20;5.43;;;;;;;12.13;84.09;96388.66;4917264;29;20052;-81
2023/05/12 01:04:36;;;;;;;8.65;5.55;;;;;;;12.19;83.70;96383.63;4916772;29;20059;-82
2023/05/12 01:07:08;;;;;;;6.95;6.22;;;;;;;12.22;84.94;96378.00;4916793;29;20526;-82
2023/05/12 01:09:36;;;;;;;;;;;;;;;12.26;85.90;96374.78;4917448;29;20056;-82
2023/05/12 01:12:04;;;;;;;6.53;5.82;;;;;;;12.27;84.64;96376.41;4916426;29;20386;-81
2023/05/12 01:14:33;;;;;;;6.10;5.50;;;;;;;12.28;84.10;96377.22;4916196;29;20054;-82
2023/05/12 01:17:07;;;;;;;5.30;4.80;;;;;;;12.30;84.86;96380.44;4916881;29;20154;-82
2023/05/12 01:19:41;;;;;;;3.95;3.65;;;;;;;12.29;84.65;96374.41;4916769;29;20103;-81
2023/05/12 01:22:09;;;;;;;3.47;3.17;;;;;;;12.27;83.33;96376.41;4916863;29;20063;-82
2023/05/12 01:24:45;;;;;;;3.30;3.00;;;;;;;12.27;84.71;96373.00;4916616;29;20079;-82
2023/05/12 01:27:16;;;;;;;5.07;3.28;;;;;;;12.31;85.55;96375.00;4916834;29;20079;-81
2023/05/12 01:29:46;;;;;;;3.20;3.00;;;;;;;12.33;85.49;96378.25;4916610;29;20515;-81
2023/05/12 01:32:14;;;;;;;3.85;3.50;;;;;;;12.35;86.33;96373.63;4916746;29;20062;-81
2023/05/12 01:34:43;;;;;;;4.60;4.20;;;;;;;12.32;83.64;96379.22;4916532;29;20044;-81
2023/05/12 01:37:11;;;;;;;4.45;4.05;;;;;;;12.24;82.16;96371.56;4916883;29;20469;-82
2023/05/12 01:39:39;;;;;;;4.57;4.05;;;;;;;12.18;81.44;96371.53;4916559;29;20143;-81
2023/05/12 01:42:06;;;;;;;4.65;4.25;;;;;;;12.11;81.28;96374.13;4916342;29;20044;-82
2023/05/12 01:44:35;;;;;;;3.63;3.33;;;;;;;12.06;81.70;96374.72;4916728;29;20048;-81
2023/05/12 01:47:03;;;;;;;3.65;3.35;;;;;;;12.02;81.32;96377.94;4916231;29;20048;-81
2023/05/12 01:49:30;;;;;;;3.45;3.15;;;;;;;11.99;81.56;96378.34;4916674;29;20366;-81
2023/05/12 01:51:58;;;;;;;5.63;3.13;;;;;;;12.01;81.69;96378.94;4916690;29;20052;-81
2023/05/12 01:54:26;;;;;;;3.20;2.90;;;;;;;12.04;81.98;96381.97;4916446;29;20052;-81
2023/05/12 01:56:53;;;;;;;4.57;2.50;;;;;;;12.09;82.73;96378.75;4916876;29;20052;-81
2023/05/12 01:59:21;;;;;;;3.45;3.15;;;;;;;12.13;83.77;96380.81;4916454;29;20056;-81
2023/05/12 02:01:50;;;;;;;3.05;2.80;;;;;;;12.20;85.04;96380.81;4916758;29;20056;-81
2023/05/12 02:04:18;;;;;;;5.30;3.03;;;;;;;12.23;83.98;96375.19;4916135;29;20048;-82
2023/05/12 02:06:45;;;;;;;3.75;3.45;;;;;;;12.20;82.62;96377.38;4916337;29;20052;-81
2023/05/12 02:09:13;;;;;;;3.00;2.70;;;;;;;12.16;82.96;96379.59;4916265;29;20151;-81
2023/05/12 02:11:40;;;;;;;3.30;3.10;;;;;;;12.18;83.69;96377.59;4916239;29;20048;-82
2023/05/12 02:14:08;;;;;;;3.70;3.30;;;;;;;12.20;84.93;96375.59;4915616;29;20052;-81
2023/05/12 02:16:36;;;;;;;4.32;3.92;;;;;;;12.24;85.56;96379.41;4915986;29;20135;-81
2023/05/12 02:19:05;;;;;;;4.38;3.97;;;;;;;12.30;86.69;96385.66;4916569;29;20052;-81
2023/05/12 02:21:32;;;;;;;4.78;4.13;;;;;;;12.28;84.42;96382.44;4916122;29;20056;-82
2023/05/12 02:24:00;;;;;;;4.25;3.85;;;;;;;12.24;83.64;96381.22;4932084;29;20052;-81
2023/05/12 02:26:28;;;;;;;5.30;4.78;;;;;;;12.17;82.53;96375.97;4933572;29;20058;-82
2023/05/12 02:28:55;;;;;;;5.65;4.20;;;;;;;12.13;83.47;96374.75;4934311;29;20052;-82
2023/05/12 02:31:23;;;;;;;4.00;3.45;;;;;;;12.14;84.26;96379.00;4926913;29;20074;-81
2023/05/12 02:33:51;;;;;;;4.13;3.83;;;;;;;12.12;82.66;96371.34;4917004;29;20054;-81
2023/05/12 02:36:20;;;;;;;4.18;3.70;;;;;;;12.07;81.51;96378.97;4916897;29;20044;-82
2023/05/12 02:38:47;;;;;;;6.00;4.13;;;;;;;12.04;81.63;96375.94;4916431;29;20052;-82
2023/05/12 02:41:15;;;;;;;3.85;3.55;;;;;;;12.03;81.45;96374.34;4916655;29;20044;-82
2023/05/12 02:43:43;;;;;;;3.42;3.13;;;;;;;12.03;81.63;96374.34;4919386;29;20048;-81
2023/05/12 02:46:10;;;;;;;3.55;2.63;;;;;;;12.06;82.34;96373.94;4919258;29;20044;-81
2023/05/12 02:48:38;;;;;;;4.28;3.88;;;;;;;12.07;81.58;96375.53;4919647;29;20052;-81
2023/05/12 02:51:05;;;;;;;6.55;5.00;;;;;;;12.00;80.80;96366.88;4919540;29;20063;-82
2023/05/12 02:53:34;;;;;;;7.93;5.38;;;;;;;11.92;80.72;96366.03;4919036;29;20469;-81
2023/05/12 02:56:02;;;;;;;8.85;6.43;;;;;;;11.87;81.00;96365.81;4918977;29;20513;-81
2023/05/12 02:58:29;;;;;;;5.53;5.03;;;;;;;11.87;81.61;96360.56;4919248;29;20146;-81
2023/05/12 03:00:57;;;;;;;8.75;7.22;;;;;;;11.85;80.96;96362.56;4918957;29;20056;-82
2023/05/12 03:03:36;;;;;;;7.45;6.38;;;;;;;11.86;81.61;96358.94;4918910;29;20060;-81
2023/05/12 03:06:04;;;;;;;7.30;5.57;;;;;;;11.92;82.51;96360.03;4918818;29;20424;-82
2023/05/12 03:08:32;;;;;;;6.13;5.20;;;;;;;11.97;82.79;96362.03;4918922;29;20504;-82
2023/05/12 03:11:02;;;;;;;6.03;4.85;;;;;;;12.01;82.52;96360.66;4919074;29;20059;-82
2023/05/12 03:13:29;;;;;;;4.63;4.22;;;;;;;12.03;82.89;96364.69;4921309;29;20052;-81
2023/05/12 03:15:59;;;;;;;5.20;4.70;;;;;;;12.09;84.21;96363.91;4939405;29;20086;-81
2023/05/12 03:18:28;;;;;;;4.90;4.47;;;;;;;12.14;84.70;96360.69;4939182;29;20052;-81
2023/05/12 03:20:55;;;;;;;5.78;4.55;;;;;;;12.19;84.36;96365.31;4936435;29;20063;-81
2023/05/12 03:23:23;;;;;;;5.10;4.60;;;;;;;12.21;84.30;96363.31;4919244;29;20058;-81
2023/05/12 03:25:51;;;;;;;4.93;4.10;;;;;;;12.23;85.14;96359.50;4918728;29;20254;-81
2023/05/12 03:28:21;;;;;;;4.43;4.03;;;;;;;12.27;86.14;96359.91;4918866;29;20055;-81
2023/05/12 03:30:49;;;;;;;4.35;3.78;;;;;;;12.29;86.07;96361.31;4918573;29;20048;-82
2023/05/12 03:33:16;;;;;;;4.55;4.15;;;;;;;12.30;85.22;96360.31;4918855;29;20044;-82
2023/05/12 03:35:44;;;;;;;5.00;4.28;;;;;;;12.28;84.98;96362.31;4932558;29;20058;-82
2023/05/12 03:38:12;;;;;;;5.38;4.85;;;;;;;12.29;85.62;96363.94;4931289;29;20152;-82
2023/05/12 03:40:39;;;;;;;6.20;5.60;;;;;;;12.31;85.67;96363.72;4922035;29;20139;-82
2023/05/12 03:43:07;;;;;;;6.82;5.40;;;;;;;12.32;85.88;96363.53;4918767;29;20055;-82
2023/05/12 03:45:36;;;;;;;7.65;5.35;;;;;;;12.32;85.46;96367.97;4918102;29;20051;-81
2023/05/12 03:48:04;;;;;;;5.60;5.00;;;;;;;12.32;85.54;96360.91;4919150;29;20506;-81
2023/05/12 03:50:32;;;;;;;5.40;4.90;;;;;;;12.34;86.12;96358.91;4917597;29;20135;-81
2023/05/12 03:52:59;;;;;;;6.43;5.40;;;;;;;12.35;85.43;96362.31;4916950;29;20573;-81
2023/05/12 03:55:27;;;;;;;6.00;5.03;;;;;;;12.35;85.86;96357.09;4918147;29;20148;-81
2023/05/12 03:57:54;;;;;;;8.02;5.68;;;;;;;12.30;84.23;96360.31;4918583;29;20056;-80
2023/05/12 04:00:22;;;;;;;6.60;6.00;;;;;;;12.28;84.63;96364.13;4922012;29;20052;-82
2023/05/12 04:02:53;;;;;;;5.28;4.70;;;;;;;12.28;85.63;96357.09;4918139;29;20056;-81
2023/05/12 04:05:21;;;;;;;6.68;5.95;;;;;;;12.31;86.16;96356.69;4916249;29;20115;-82
2023/05/12 04:07:49;;;;;;;6.60;5.90;;;;;;;12.33;86.17;96357.31;4916794;29;20048;-81
2023/05/12 04:10:17;;;;;;;7.03;6.32;;;;;;;12.33;85.53;96362.53;4931601;29;20160;-82
2023/05/12 04:12:45;;;;;;;8.40;6.30;;;;;;;12.27;83.54;96368.56;4952158;23;20027;-84
2023/05/12 04:15:13;;;;;;;7.50;6.40;;;;;;;12.15;82.96;96352.63;4939858;29;20075;-79
2023/05/12 04:17:41;;;;;;;8.00;7.20;;;;;;;12.11;82.84;96356.66;4940256;29;20043;-82
2023/05/12 04:20:11;;;;;;;7.53;6.40;;;;;;;12.10;82.37;96364.69;4923463;29;20060;-84
2023/05/12 04:22:39;;;;;;;7.85;6.40;;;;;;;12.11;83.74;96368.91;4919135;29;20049;-84
2023/05/12 04:25:07;;;;;;;7.43;6.68;;;;;;;12.15;84.09;96360.47;4902010;29;20485;-79
2023/05/12 04:27:35;;;;;;;6.70;5.75;;;;;;;12.21;85.29;96360.69;4903783;29;20060;-83
2023/05/12 04:30:02;;;;;;;7.97;7.07;;;;;;;12.28;86.50;96367.53;4913156;29;20049;-83
2023/05/12 04:32:30;;;;;;;7.90;6.80;;;;;;;12.31;86.34;96374.19;4904034;29;20053;-79
2023/05/12 04:34:58;;;;;;;7.95;6.95;;;;;;;12.33;86.82;96370.38;4911831;29;20088;-83
2023/05/12 04:37:27;;;;;;;9.23;8.10;;;;;;;12.37;87.64;96376.00;4920712;29;20052;-82
2023/05/12 04:39:54;;;;;;;9.07;7.30;;;;;;;12.40;87.66;96374.81;4921748;29;20086;-80
2023/05/12 04:42:22;;;;;;;10.35;7.50;;;;;;;12.42;87.92;96375.41;4914337;29;20155;-78
2023/05/12 04:44:49;;;;;;;9.00;7.65;;;;;;;12.41;87.12;96376.44;4919299;29;20111;-83
2023/05/12 04:47:17;;;;;;;7.53;6.70;;;;;;;12.40;86.28;96380.88;4921557;29;20071;-84
2023/05/12 04:49:45;;;;;;;10.38;8.23;;;;;;;12.37;84.50;96383.84;4923218;29;20052;-83
2023/05/12 04:52:12;;;;;;;10.93;8.40;;;;;;;12.31;83.11;96382.03;4922446;29;20048;-79
2023/05/12 04:54:41;;;;;;;10.25;8.75;;;;;;;12.23;82.17;96390.88;4922457;29;20048;-80
2023/05/12 04:57:09;;;;;;;10.75;8.93;;;;;;;12.17;82.47;96391.66;4922869;29;20070;-82
2023/05/12 04:59:36;;;;;;;8.63;7.68;;;;;;;12.15;83.87;96393.66;4922817;29;20054;-81
2023/05/12 05:02:07;;;;;;;12.52;9.40;;;;;;;12.15;83.24;96388.44;4921926;29;20056;-79
2023/05/12 05:04:34;;;;;;;14.48;11.10;;;;;;;12.13;82.23;96390.44;4921702;29;20405;-85
2023/05/12 05:07:02;;;;;;;11.77;9.85;;;;;;;12.11;81.58;96393.28;4923244;29;20518;-81
2023/05/12 05:09:29;;;;;;;11.68;9.27;;;;;;;12.09;81.67;96386.59;4924211;29;20515;-80
2023/05/12 05:11:58;;;;;;;10.13;9.00;;;;;;;12.10;82.12;96393.44;4922102;29;20119;-79
2023/05/12 05:14:26;;;;;;;10.18;8.50;;;;;;;12.14;83.26;96389.44;4921131;29;20563;-83
2023/05/12 05:16:54;;;;;;;11.45;9.75;;;;;;;12.20;84.65;96391.28;4921945;29;20044;-81
2023/05/12 05:19:21;;;;;;;10.57;9.07;;;;;;;12.27;85.70;96397.34;4921669;29;20060;-80
2023/05/12 05:22:09;;;;;;;10.40;8.48;;;;;;;12.33;86.46;96393.94;4920861;29;20060;-82
2023/05/12 05:24:36;;;;;;;11.48;10.00;;;;;;;12.39;86.87;96400.16;4920550;29;20052;-80
2023/05/12 05:27:06;;;;;;;12.45;9.38;;;;;;;12.43;87.54;96396.16;4920893;29;20048;-79
2023/05/12 05:29:33;;;;;;;12.45;9.48;;;;;;;12.40;84.63;96395.72;4922038;29;20048;-82
2023/05/12 05:32:01;;;;;;;11.05;8.85;;;;;;;12.33;82.68;96401.78;4921032;29;20060;-78
2023/05/12 05:34:28;;;;;;;12.50;9.05;;;;;;;12.26;82.16;96400.94;4920144;29;20044;-79
2023/05/12 05:36:56;;;;;;;16.27;9.70;;;;;;;12.24;82.51;96402.94;4922410;29;20048;-79
2023/05/12 05:39:24;;;;;;;8.70;7.80;;;;;;;12.29;83.63;96405.00;4923907;29;20071;-80
2023/05/12 05:41:51;;;;;;;10.38;8.70;;;;;;;12.33;83.78;96406.19;4923226;29;20052;-80
2023/05/12 05:44:20;;;;;;;9.10;8.15;;;;;;;12.38;83.65;96410.84;4922602;29;20066;-82
2023/05/12 05:46:48;;;;;;;9.15;8.15;;;;;;;12.44;85.02;96410.03;4922611;29;20054;-82
2023/05/12 05:49:15;;;;;;;10.05;8.10;;;;;;;12.46;84.94;96411.47;4922890;29;20056;-84
2023/05/12 05:51:43;;;;;;;8.20;7.38;;;;;;;12.49;85.51;96412.88;4924047;29;20056;-82
2023/05/12 05:54:10;;;;;;;9.05;7.43;;;;;;;12.53;85.94;96412.28;4924395;29;20048;-80
2023/05/12 05:56:38;;;;;;;10.63;7.68;;;;;;;12.57;86.30;96410.06;4924799;29;20084;-83
2023/05/12 05:59:06;;;;;;;9.27;8.20;;;;;;;12.57;85.94;96417.91;4924172;29;20076;-82
2023/05/12 06:01:35;;;;;;;9.18;7.75;;;;;;;12.58;85.76;96419.53;4924676;29;20448;-84
2023/05/12 06:04:03;;;;;;;9.02;7.07;;;;;;;12.59;85.77;96408.03;4924097;29;20420;-82
2023/05/12 06:06:31;;;;;;;7.47;6.57;;;;;;;12.64;86.48;96413.50;4925037;29;20048;-85
2023/05/12 06:08:59;;;;;;;10.18;8.50;;;;;;;12.67;86.36;96417.53;4924869;29;20131;-80
2023/05/12 06:11:26;;;;;;;8.77;7.57;;;;;;;12.69;86.02;96420.75;4924289;29;20115;-80
2023/05/12 06:13:54;;;;;;;10.45;7.80;;;;;;;12.71;85.90;96418.75;4924556;29;20094;-83
2023/05/12 06:16:21;;;;;;;8.95;7.90;;;;;;;12.72;84.73;96426.38;4925813;29;20056;-82
2023/05/12 06:18:50;;;;;;;9.57;8.13;;;;;;;12.75;85.86;96426.00;4928300;29;20056;-81
2023/05/12 06:21:18;;;;;;;8.40;7.18;;;;;;;12.80;86.09;96419.38;4928211;29;20052;-86
2023/05/12 06:23:45;;;;;;;9.90;7.88;;;;;;;12.84;86.28;96425.81;4930324;29;20060;-80
2023/05/12 06:26:13;;;;;;;10.43;7.72;;;;;;;12.87;85.93;96428.81;4931036;29;20052;-84
2023/05/12 06:28:41;;;;;;;9.95;8.43;;;;;;;12.90;85.37;96425.81;4930807;29;20071;-84
2023/05/12 06:31:08;;;;;;;11.05;9.05;;;;;;;12.90;83.57;96420.59;4930306;29;20078;-82
2023/05/12 06:33:36;;;;;;;8.77;7.32;;;;;;;12.94;84.30;96424.41;4930730;29;20052;-86
2023/05/12 06:36:06;;;;;;;10.13;7.50;;;;;;;12.98;85.36;96430.03;4931363;29;20130;-83
2023/05/12 06:38:34;;;;;;;10.25;8.57;;;;;;;13.00;84.92;96425.41;4931546;29;20064;-83
2023/05/12 06:41:01;;;;;;;11.65;9.07;;;;;;;13.03;85.28;96427.66;4931098;29;20515;-85
2023/05/12 06:43:29;;;;;;;10.30;8.77;;;;;;;13.04;83.52;96428.44;4930708;29;20055;-83
2023/05/12 06:45:57;;;;;;;10.07;8.27;;;;;;;13.04;83.55;96429.25;4929001;29;20052;-82
2023/05/12 06:48:24;;;;;;;11.70;9.55;;;;;;;13.01;81.63;96429.66;4925540;29;20095;-85
2023/05/12 06:50:52;;;;;;;11.98;9.70;;;;;;;12.94;81.31;96429.66;4930542;29;20055;-81
2023/05/12 06:53:21;;;;;;;11.70;8.95;;;;;;;12.90;81.12;96432.84;4930534;29;20058;-82
2023/05/12 06:55:52;;;;;;;10.93;9.38;;;;;;;12.88;81.25;96429.63;4930308;29;20056;-81
2023/05/12 06:58:20;;;;;;;12.90;9.98;;;;;;;12.90;81.50;96427.63;4929412;29;20048;-82
2023/05/12 07:00:48;;;;;;;9.27;8.38;;;;;;;12.95;82.85;96427.84;4929906;29;20087;-81
2023/05/12 07:03:16;;;;;;;10.40;8.50;;;;;;;13.00;83.24;96430.66;4929095;29;20056;-83
2023/05/12 07:05:44;;;;;;;9.88;8.55;;;;;;;13.05;84.05;96435.28;4928726;29;20044;-83
2023/05/12 07:08:12;;;;;;;8.88;7.88;;;;;;;13.10;84.35;96428.44;4928633;29;20166;-80
2023/05/12 07:10:41;;;;;;;9.43;7.13;;;;;;;13.13;83.47;96427.22;4929276;29;20420;-81
2023/05/12 07:13:08;;;;;;;7.47;6.63;;;;;;;13.15;83.80;96426.00;4928368;29;20531;-82
2023/05/12 07:15:36;;;;;;;7.32;5.70;;;;;;;13.17;83.51;96423.19;4928109;29;20047;-80
2023/05/12 07:18:04;;;;;;;5.82;5.15;;;;;;;13.17;81.44;96429.25;4929062;29;20059;-83
2023/05/12 07:20:31;;;;;;;6.15;5.47;;;;;;;13.20;81.94;96428.03;4928870;29;20138;-83
2023/05/12 07:22:59;;;;;;;6.47;5.50;;;;;;;13.28;83.00;96421.78;4928588;29;20148;-83
2023/05/12 07:25:27;;;;;;;6.88;5.40;;;;;;;13.37;83.43;96425.84;4928660;29;20133;-83
2023/05/12 07:27:56;;;;;;;5.25;4.65;;;;;;;13.43;82.77;96432.09;4927700;29;20116;-83
2023/05/12 07:30:24;;;;;;;5.30;4.60;;;;;;;13.43;80.84;96426.84;4928261;29;20059;-84
2023/05/12 07:32:51;;;;;;;5.68;5.05;;;;;;;13.38;79.27;96430.06;4928861;29;20052;-81
2023/05/12 07:35:19;;;;;;;7.45;5.30;;;;;;;13.32;79.01;96423.03;4928696;29;20595;-80
2023/05/12 07:37:47;;;;;;;4.65;4.25;;;;;;;13.31;79.43;96426.63;4928385;29;20063;-83
2023/05/12 07:40:15;;;;;;;5.43;4.93;;;;;;;13.33;79.30;96429.88;4928686;29;20052;-80
2023/05/12 07:42:43;;;;;;;4.47;4.07;;;;;;;13.33;79.05;96416.78;4930289;29;20056;-83
2023/05/12 07:45:12;;;;;;;2.72;2.53;;;;;;;13.33;77.58;96420.19;4931590;29;20048;-81
2023/05/12 07:47:40;;;;;;;3.95;2.33;;;;;;;13.37;76.52;96424.00;4931018;29;20052;-82
2023/05/12 07:50:07;;;;;;;2.80;2.60;;;;;;;13.39;76.25;96426.44;4931192;29;20084;-83
2023/05/12 07:52:35;;;;;;;3.15;2.92;;;;;;;13.42;75.92;96428.63;4929705;29;20504;-84
2023/05/12 07:55:03;;;;;;;3.10;2.80;;;;;;;13.50;76.03;96422.41;4930840;29;20063;-83
2023/05/12 07:57:31;;;;;;;3.92;3.63;;;;;;;13.63;75.59;96421.56;4931483;29;20186;-82
2023/05/12 07:59:58;;;;;;;4.47;4.10;;;;;;;13.70;74.50;96425.78;4930784;29;20056;-83
2023/05/12 08:02:27;;;;;;;4.10;3.80;;;;;;;13.78;75.18;96424.75;4931303;29;20506;-82
2023/05/12 08:04:55;;;;;;;4.55;4.15;;;;;;;13.88;75.25;96427.72;4930774;29;20588;-83
2023/05/12 08:07:23;;;;;;;4.50;4.07;;;;;;;13.95;74.33;96425.09;4931488;29;20059;-82
2023/05/12 08:09:51;;;;;;;5.43;4.93;;;;;;;13.95;73.73;96431.16;4931181;29;20574;-81
2023/05/12 08:12:19;;;;;;;5.47;5.00;;;;;;;13.96;73.53;96427.50;4931447;29;20084;-84
2023/05/12 08:14:47;;;;;;;7.13;6.45;;;;;;;14.05;72.87;96424.66;4931040;29;20052;-86
2023/05/12 08:17:15;;;;;;;7.20;6.50;;;;;;;14.15;72.10;96432.91;4931366;29;20119;-82
2023/05/12 08:19:44;;;;;;;7.43;6.45;;;;;;;14.23;72.17;96432.66;4931704;29;20081;-82
2023/05/12 08:22:12;;;;;;;7.95;7.25;;;;;;;14.30;72.07;96422.94;4930498;29;20062;-83
2023/05/12 08:24:39;;;;;;;8.20;7.50;;;;;;;14.30;70.47;96433.44;4930701;29;20124;-84
2023/05/12 08:27:07;;;;;;;10.30;9.25;;;;;;;14.26;70.60;96429.63;4931217;29;20063;-80
2023/05/12 08:29:35;;;;;;;10.45;9.45;;;;;;;14.24;70.63;96434.28;4929895;29;20055;-80
2023/05/12 08:32:02;;;;;;;9.63;8.73;;;;;;;14.27;70.98;96428.59;4927031;29;20432;-80
2023/05/12 08:34:30;;;;;;;10.45;9.40;;;;;;;14.33;71.69;96427.75;4926037;29;20048;-84
2023/05/12 08:37:00;;;;;;;9.40;8.20;;;;;;;14.43;71.11;96435.19;4925526;29;20539;-80
2023/05/12 08:39:29;;;;;;;17.05;9.80;;;;;;;14.43;71.20;96433.38;4927467;29;20076;-81
2023/05/12 08:42:08;;;;;;;9.23;8.32;;;;;;;14.37;70.03;96428.97;4927443;29;20052;-79
2023/05/12 08:44:37;;;;;;;9.38;8.48;;;;;;;14.32;70.48;96436.66;4925729;29;20080;-82
2023/05/12 08:47:05;;;;;;;8.82;8.02;;;;;;;14.30;70.51;96432.63;4926750;29;20535;-79
2023/05/12 08:49:37;;;;;;;9.30;8.38;;;;;;;14.29;70.66;96436.28;4926962;29;20501;-79
2023/05/12 08:52:07;;;;;;;8.70;7.90;;;;;;;14.31;70.56;96434.25;4926019;29;20066;-79
2023/05/12 08:54:36;;;;;;;8.27;7.47;;;;;;;14.32;70.97;96438.47;4927392;29;20135;-81
2023/05/12 08:57:19;;;;;;;8.55;7.70;;;;;;;14.33;69.75;96447.97;4927956;29;20412;-80
2023/05/12 08:59:47;;;;;;;8.00;7.20;;;;;;;14.30;69.44;96446.56;4926152;29;20550;-79
2023/05/12 09:02:17;;;;;;;8.35;6.95;;;;;;;14.31;70.45;96447.34;4924754;29;20131;-79
2023/05/12 09:04:44;;;;;;;7.93;7.20;;;;;;;14.39;71.80;96440.06;4924863;29;20465;-82
2023/05/12 09:07:14;;;;;;;6.60;5.90;;;;;;;14.47;70.35;96453.94;4925507;29;20105;-82
2023/05/12 09:09:44;;;;;;;6.18;5.55;;;;;;;14.47;68.93;96454.75;4925051;29;20052;-81
2023/05/12 09:12:15;;;;;;;4.72;4.32;;;;;;;14.47;68.45;96443.44;4925652;29;20512;-82
2023/05/12 09:14:44;;;;;;;5.20;3.83;;;;;;;14.46;67.96;96447.09;4924172;29;20076;-79
2023/05/12 09:17:12;;;;;;;4.00;3.70;;;;;;;14.48;68.67;96447.69;4925160;29;20055;-79
2023/05/12 09:19:40;;;;;;;7.15;4.55;;;;;;;14.56;69.27;96448.28;4924820;29;20067;-80
2023/05/12 09:22:13;;;;;;;6.70;4.90;;;;;;;14.67;70.82;96462.56;4924157;29;20501;-79
2023/05/12 09:24:43;;;;;;;3.97;3.58;;;;;;;14.65;68.91;96455.88;4924477;29;20052;-81
2023/05/12 09:27:10;;;;;;;5.93;4.43;;;;;;;14.59;69.30;96453.09;4924868;29;20052;-84
2023/05/12 09:29:48;;;;;;;5.65;4.47;;;;;;;14.53;67.78;96453.91;4926156;29;20131;-79
2023/05/12 09:32:33;;;;;;;5.03;4.63;;;;;;;14.49;68.10;96450.09;4923763;29;20413;-80
2023/05/12 09:35:06;;;;;;;5.35;4.85;;;;;;;14.48;67.90;96460.81;4922747;29;20067;-84
2023/05/12 09:37:34;;;;;;;4.90;4.40;;;;;;;14.48;70.36;96450.31;4922826;29;20052;-80
2023/05/12 09:40:06;;;;;;;6.65;4.20;;;;;;;14.49;68.52;96454.53;4921966;29;20052;-81
2023/05/12 09:42:35;;;;;;;5.88;4.93;;;;;;;14.48;69.20;96452.94;4921808;29;20066;-80
2023/05/12 09:45:03;;;;;;;4.25;3.85;;;;;;;14.49;69.49;96470.28;4923941;29;20056;-81
2023/05/12 09:47:37;;;;;;;4.75;4.28;;;;;;;14.46;68.55;96465.47;4925018;29;20060;-82
2023/05/12 09:50:07;;;;;;;6.63;4.75;;;;;;;14.44;68.65;96468.28;4925773;29;20048;-82
2023/05/12 09:52:37;;;;;;;6.03;4.55;;;;;;;14.39;67.68;96466.28;4927116;29;20088;-81
2023/05/12 09:55:09;;;;;;;3.90;3.50;;;;;;;14.34;68.20;96467.91;4928576;29;20056;-80
2023/05/12 09:57:40;;;;;;;4.55;3.05;;;;;;;14.29;68.03;96463.31;4929147;29;20070;-79
2023/05/12 10:00:09;;;;;;;3.83;3.53;;;;;;;14.27;68.64;96465.31;4927419;29;20427;-79
2023/05/12 10:02:56;;;;;;;4.43;4.03;;;;;;;14.30;69.05;96458.84;4926992;29;20104;-81
2023/05/12 10:05:25;;;;;;;3.63;3.33;;;;;;;14.33;70.23;96459.25;4932749;29;20084;-81
2023/05/12 10:07:57;;;;;;;6.18;4.40;;;;;;;14.38;68.82;96462.03;4933645;29;20138;-81
2023/05/12 10:10:27;;;;;;;4.88;4.03;;;;;;;14.40;69.12;96464.47;4927674;29;20052;-79
2023/05/12 10:12:55;;;;;;;7.05;4.93;;;;;;;14.41;69.28;96456.41;4945650;23;20068;-78
2023/05/12 10:15:24;;;;;;;6.22;4.35;;;;;;;14.41;69.35;96460.84;4919174;29;20062;-78
2023/05/12 10:17:53;;;;;;;4.82;4.43;;;;;;;14.38;70.58;96462.03;4919724;29;20565;-78
2023/05/12 10:20:22;;;;;;;5.30;4.40;;;;;;;14.38;70.69;96456.81;4919363;29;20048;-78
2023/05/12 10:22:51;;;;;;;5.30;4.40;;;;;;;14.34;69.77;96466.13;4918573;29;20052;-78
2023/05/12 10:25:19;;;;;;;4.95;4.40;;;;;;;14.33;70.23;96467.13;4900343;29;20136;-79
2023/05/12 10:27:50;;;;;;;9.20;5.50;;;;;;;14.34;70.18;96466.13;4900469;29;20075;-78
2023/05/12 10:30:18;;;;;;;5.82;4.90;;;;;;;14.31;69.24;96471.78;4900237;29;20512;-79
2023/05/12 10:32:45;;;;;;;7.57;5.15;;;;;;;14.28;69.47;96472.19;4900229;29;20056;-78
2023/05/12 10:35:14;;;;;;;5.40;4.90;;;;;;;14.27;68.99;96480.28;4900536;29;20088;-79
2023/05/12 10:37:42;;;;;;;5.35;4.85;;;;;;;14.25;69.06;96480.47;4900348;29;20059;-78
2023/05/12 10:40:10;;;;;;;6.50;5.85;;;;;;;14.24;69.28;96478.88;4900377;29;20215;-78
2023/05/12 10:42:40;;;;;;;6.78;5.80;;;;;;;14.21;69.48;96472.22;4900533;29;20143;-78
2023/05/12 10:45:19;;;;;;;5.78;5.28;;;;;;;14.22;69.84;96478.28;4900183;29;20060;-78
2023/05/12 10:47:47;;;;;;;7.00;6.30;;;;;;;14.22;70.14;96476.44;4900218;29;20488;-79
2023/05/12 10:50:26;;;;;;;5.90;5.40;;;;;;;14.25;70.44;96482.28;4900272;29;20454;-79
2023/05/12 10:52:54;;;;;;;6.68;6.07;;;;;;;14.24;69.95;96476.25;4900311;29;20057;-79
2023/05/12 10:55:31;;;;;;;7.00;6.05;;;;;;;14.25;70.32;96479.66;4899944;29;20052;-78
2023/05/12 10:58:09;;;;;;;5.60;5.20;;;;;;;14.22;70.09;96481.69;4900060;29;20051;-78
2023/05/12 11:00:46;;;;;;;7.65;6.35;;;;;;;14.19;69.96;96476.03;4900116;29;20048;-78
2023/05/12 11:03:17;;;;;;;6.80;6.05;;;;;;;14.16;70.06;96481.72;4899607;29;20092;-78
2023/05/12 11:05:46;;;;;;;7.47;6.78;;;;;;;14.13;69.79;96471.66;4899945;29;20091;-78
2023/05/12 11:08:16;;;;;;;7.03;6.32;;;;;;;14.13;70.09;96474.28;4899940;29;20055;-78
2023/05/12 11:10:45;;;;;;;7.22;6.53;;;;;;;14.11;70.02;96484.16;4899945;29;20139;-78
2023/05/12 11:13:13;;;;;;;7.70;6.90;;;;;;;14.08;69.73;96481.94;4899819;29;20144;-78
2023/05/12 11:15:45;;;;;;;7.32;6.63;;;;;;;14.08;70.87;96487.19;4899960;29;20524;-78
2023/05/12 11:18:12;;;;;;;8.23;7.13;;;;;;;14.10;70.39;96479.91;4899772;29;20515;-78
2023/05/12 11:20:40;;;;;;;8.50;6.00;;;;;;;14.11;69.87;96479.72;4900616;29;20060;-78
2023/05/12 11:23:08;;;;;;;7.28;6.57;;;;;;;14.14;69.30;96491.63;4912646;29;20060;-79
2023/05/12 11:25:35;;;;;;;7.43;6.75;;;;;;;14.13;69.05;96487.38;4913555;29;20059;-79
2023/05/12 11:28:03;;;;;;;7.00;6.40;;;;;;;14.10;68.07;96488.63;4902599;29;20087;-78
2023/05/12 11:30:31;;;;;;;6.97;6.28;;;;;;;14.07;68.31;96481.13;4899877;29;20511;-78
2023/05/12 11:33:03;;;;;;;6.45;5.85;;;;;;;14.10;69.71;96487.78;4899930;29;20060;-78
2023/05/12 11:35:31;;;;;;;8.55;6.30;;;;;;;14.14;69.23;96497.66;4899427;29;20052;-79
2023/05/12 11:38:01;;;;;;;7.65;7.05;;;;;;;14.13;68.50;96497.88;4899295;29;20056;-79